^^

..:: Storico WU ::..




Lo storico viene creato da WUnderground con i dati che la stazione Meteomincio invia al loro server. L' aggiornamento viene fatto ogni 5 minuti circa, tuttavia possono esserci intervalli pi¨ ampi a causa di errori, interruzioni di servizio o problemi nell' invio tramite FTP.


Storico stazione MeteoMincio
Giorno Sommario per Maggio 23, 2022 Unità:  Inglese    Metrico   Entrambi
Giorno Settimana Mese Anno
  Max: Min: Media:
Temperatura: 87.6 °F 68.7 °F 77.4 °F
Dew Point: 71.1 °F 56.7 °F 64.9 °F
Umidità: 86% 39.7% 67%
Velocità vento: 7.4mph 0mph 3mph
Raffica: 13mph - -
Direzione- - SSE
Pressione: 29.8 in 29.6 in -
Precipitazioni: 0 in    
 
 
Tabulato Dati per Maggio 23, 2022
Ora Temperatura Dew Point Pressione Direzione Velocità vento Raffica Umidità Intensità pioggia (oraria) Info solare Situazione
00:04 75.7 °F 68 °F 29.8 in East 6.6 mph 9.2 mph 77% 0 in 0 W/m2
00:09 75.6 °F 67.8 °F 29.8 in East 5 mph 9 mph 77% 0 in 0 W/m2
00:14 75.4 °F 68.2 °F 29.8 in ESE 4.7 mph 7 mph 78% 0 in 0 W/m2
00:19 75.4 °F 68.2 °F 29.8 in ESE 3.8 mph 7 mph 78% 0 in 0 W/m2
00:24 75.6 °F 67.8 °F 29.8 in SE 3.1 mph 5 mph 77.2% 0 in 0 W/m2
00:29 75.4 °F 67.8 °F 29.8 in SSW 3.7 mph 8.1 mph 77% 0 in 0 W/m2
00:34 75.6 °F 67.8 °F 29.8 in SW 4.7 mph 8.1 mph 77% 0 in 0 W/m2
00:39 75.6 °F 68 °F 29.8 in SSW 3.9 mph 8 mph 77.5% 0 in 0 W/m2
00:44 75.4 °F 68 °F 29.8 in SSW 3.2 mph 5 mph 78% 0 in 0 W/m2
00:49 75.2 °F 68 °F 29.8 in SW 2.2 mph 5 mph 78% 0 in 0 W/m2
00:54 75 °F 67.6 °F 29.8 in WSW 2.1 mph 4 mph 78% 0 in 0 W/m2
00:59 74.8 °F 67.6 °F 29.8 in SW 2.9 mph 5 mph 78% 0 in 0 W/m2
01:04 74.7 °F 67.6 °F 29.8 in West 5.6 mph 12 mph 78.4% 0 in 0 W/m2
01:09 74.3 °F 67.5 °F 29.8 in WSW 7.4 mph 12 mph 79% 0 in 0 W/m2
01:14 74.1 °F 67.1 °F 29.8 in West 6.7 mph 12 mph 78.8% 0 in 0 W/m2
01:19 73.9 °F 66.9 °F 29.8 in West 6.4 mph 10.4 mph 78.7% 0 in 0 W/m2
01:24 73.9 °F 66.7 °F 29.8 in West 7 mph 11.5 mph 78.4% 0 in 0 W/m2
01:29 73.9 °F 66.6 °F 29.8 in WNW 6.6 mph 10.4 mph 78% 0 in 0 W/m2
01:34 73.8 °F 66.2 °F 29.8 in WNW 6.7 mph 10.4 mph 77.2% 0 in 0 W/m2
01:39 73.8 °F 66 °F 29.8 in WNW 5.3 mph 10.4 mph 77% 0 in 0 W/m2
01:44 73.8 °F 66 °F 29.8 in WNW 4.2 mph 7 mph 77% 0 in 0 W/m2
01:49 73.6 °F 65.8 °F 29.8 in WSW 2.9 mph 7 mph 77% 0 in 0 W/m2
01:54 73.2 °F 65.7 °F 29.8 in West 2.3 mph 4 mph 77.2% 0 in 0 W/m2
01:59 73 °F 65.8 °F 29.8 in WNW 4 mph 7 mph 78% 0 in 0 W/m2
02:04 73 °F 65.7 °F 29.8 in West 3.7 mph 7 mph 78% 0 in 0 W/m2
02:09 72.9 °F 65.7 °F 29.8 in WNW 4.2 mph 7 mph 78% 0 in 0 W/m2
02:14 72.9 °F 65.5 °F 29.8 in West 3.9 mph 7 mph 78% 0 in 0 W/m2
02:19 72.7 °F 65.3 °F 29.8 in West 2.9 mph 6 mph 78% 0 in 0 W/m2
02:24 72.5 °F 65.5 °F 29.8 in West 2.5 mph 5 mph 78.6% 0 in 0 W/m2
02:29 72.1 °F 65.3 °F 29.8 in West 2.7 mph 4 mph 79.2% 0 in 0 W/m2
02:34 71.8 °F 65.3 °F 29.8 in West 2.4 mph 5 mph 80% 0 in 0 W/m2
02:39 72 °F 65.3 °F 29.8 in West 3.1 mph 5 mph 80% 0 in 0 W/m2
02:44 71.8 °F 65.3 °F 29.8 in WNW 2.2 mph 3.5 mph 80% 0 in 0 W/m2
02:49 71.8 °F 65.3 °F 29.8 in NW 2.1 mph 3.5 mph 80% 0 in 0 W/m2
02:54 71.8 °F 65.3 °F 29.8 in NW 2.2 mph 4 mph 80% 0 in 0 W/m2
02:59 71.6 °F 64.9 °F 29.8 in NW 2.4 mph 5 mph 80% 0 in 0 W/m2
03:04 71.4 °F 64.9 °F 29.8 in NW 3 mph 5 mph 80% 0 in 0 W/m2
03:09 71.6 °F 65.1 °F 29.8 in NW 2.2 mph 5 mph 80% 0 in 0 W/m2
03:14 71.6 °F 64.8 °F 29.8 in NW 2.1 mph 5 mph 79.1% 0 in 0 W/m2
03:19 71.6 °F 64.6 °F 29.8 in NW 2.2 mph 5 mph 79% 0 in 0 W/m2
03:24 71.4 °F 64.8 °F 29.8 in NW 1.9 mph 4 mph 79.4% 0 in 0 W/m2
03:29 71.2 °F 64.8 °F 29.8 in NNW 1.1 mph 4 mph 80% 0 in 0 W/m2
03:34 71.1 °F 64.6 °F 29.8 in NW 1.5 mph 3.5 mph 80.2% 0 in 0 W/m2
03:39 71.1 °F 64.6 °F 29.8 in NW 2.1 mph 3.5 mph 80% 0 in 0 W/m2
03:44 71.1 °F 64.6 °F 29.8 in NW 1.5 mph 3.5 mph 80% 0 in 0 W/m2
03:49 70.9 °F 64.8 °F 29.8 in NNW 1.5 mph 3.5 mph 80.8% 0 in 0 W/m2
03:54 70.7 °F 64.8 °F 29.8 in NNW 1.4 mph 3.5 mph 81.7% 0 in 0 W/m2
03:59 70.3 °F 64.6 °F 29.8 in NNE 2.5 mph 5 mph 82% 0 in 0 W/m2
04:04 70.3 °F 64.6 °F 29.8 in NE 3.1 mph 5 mph 82% 0 in 0 W/m2
04:09 70.5 °F 64.6 °F 29.8 in NNE 1.8 mph 5 mph 82.1% 0 in 0 W/m2
04:14 70.5 °F 64.8 °F 29.8 in NNW 0.8 mph 3.5 mph 82% 0 in 0 W/m2
04:19 70.5 °F 64.8 °F 29.8 in North 0.9 mph 3 mph 82.2% 0 in 0 W/m2
04:24 70.3 °F 64.8 °F 29.8 in NNE 1.5 mph 3.5 mph 82.4% 0 in 0 W/m2
04:29 70.3 °F 64.9 °F 29.8 in NNE 1.7 mph 3.5 mph 83% 0 in 0 W/m2
04:34 70.2 °F 64.8 °F 29.8 in NE 2.1 mph 4 mph 83% 0 in 0 W/m2
04:39 70.2 °F 64.8 °F 29.8 in NE 2.1 mph 4 mph 83% 0 in 0 W/m2
04:44 70.2 °F 64.8 °F 29.8 in NNE 2 mph 4 mph 83% 0 in 0 W/m2
04:49 70.2 °F 64.8 °F 29.8 in NE 1.9 mph 3.5 mph 83% 0 in 0 W/m2
04:54 70.2 °F 64.8 °F 29.8 in NE 1.1 mph 3.5 mph 83% 0 in 0 W/m2
04:59 70.3 °F 64.9 °F 29.8 in NE 0.2 mph 3 mph 83% 0 in 0 W/m2
05:04 70.3 °F 64.9 °F 29.8 in NNE 1.1 mph 2.3 mph 83% 0 in 0 W/m2
05:09 70.5 °F 65.1 °F 29.8 in North 1.2 mph 3 mph 83% 0 in 0 W/m2
05:14 70.3 °F 64.9 °F 29.8 in NNE 2 mph 3.5 mph 83% 0 in 0 W/m2
05:19 70.2 °F 64.8 °F 29.8 in NNE 1.2 mph 6 mph 83% 0 in 0 W/m2
05:24 69.6 °F 64.6 °F 29.8 in WSW 4.5 mph 7 mph 83.9% 0 in 0 W/m2
05:29 68.7 °F 64.2 °F 29.8 in West 3.9 mph 7 mph 85.3% 0 in 0 W/m2
05:34 68.7 °F 64.4 °F 29.8 in WNW 3.5 mph 7 mph 86% 0 in 0 W/m2
05:39 68.9 °F 64.2 °F 29.8 in West 3.1 mph 5 mph 85.2% 0 in 0 W/m2
05:44 68.9 °F 64.2 °F 29.8 in WNW 3.7 mph 7 mph 85.5% 0 in 0 W/m2
05:49 68.9 °F 64.4 °F 29.8 in WNW 3.5 mph 7 mph 85.2% 0 in 0 W/m2
05:54 69.1 °F 64.4 °F 29.8 in West 3.1 mph 5 mph 85% 0 in 5 W/m2
05:59 69.3 °F 64.6 °F 29.8 in WNW 2 mph 5 mph 85% 0 in 7 W/m2
06:04 69.4 °F 64.8 °F 29.8 in West 0.7 mph 3.5 mph 85% 0 in 9 W/m2
06:09 69.6 °F 64.8 °F 29.8 in WNW 0.1 mph 3 mph 85% 0 in 12 W/m2
06:14 69.6 °F 64.9 °F 29.8 in West 0.6 mph 2 mph 85% 0 in 14 W/m2
06:19 69.6 °F 64.6 °F 29.8 in West 0.4 mph 2.3 mph 84.2% 0 in 18 W/m2
06:24 69.6 °F 64.6 °F 29.8 in Calm   2 mph 84.3% 0 in 19 W/m2
06:29 69.6 °F 64.8 °F 29.8 in WNW 1.2 mph 6 mph 84.6% 0 in 23 W/m2
06:34 69.3 °F 64.6 °F 29.8 in WNW 4 mph 6 mph 85% 0 in 28 W/m2
06:39 69.1 °F 64.4 °F 29.8 in WNW 2.5 mph 4.6 mph 85.3% 0 in 35 W/m2
06:44 68.9 °F 64.6 °F 29.8 in WNW 0.4 mph 3 mph 86% 0 in 44 W/m2
06:49 68.9 °F 64.6 °F 29.8 in Calm   2 mph 86% 0 in 54 W/m2
06:54 69.1 °F 64.8 °F 29.8 in Calm   1 mph 86% 0 in 65 W/m2
06:59 69.4 °F 64.9 °F 29.8 in NW 1.2 mph 3.5 mph 86% 0 in 77 W/m2
07:04 69.8 °F 65.5 °F 29.8 in NNW 1.9 mph 3.5 mph 86% 0 in 86 W/m2
07:09 70.2 °F 65.5 °F 29.8 in NNW 1.5 mph 3.5 mph 85.2% 0 in 102 W/m2
07:14 70.5 °F 65.8 °F 29.8 in North 0.4 mph 3 mph 84.8% 0 in 114 W/m2
07:19 70.9 °F 66.2 °F 29.8 in East 0.9 mph 2.3 mph 84.8% 0 in 130 W/m2
07:24 71.2 °F 66.2 °F 29.8 in East 1.3 mph 3.5 mph 84% 0 in 139 W/m2
07:29 71.1 °F 66 °F 29.8 in ESE 1.5 mph 3.5 mph 84% 0 in 153 W/m2
07:34 71.2 °F 66 °F 29.8 in ESE 0.7 mph 2 mph 84.1% 0 in 167 W/m2
07:39 71.4 °F 66.4 °F 29.8 in SE 0.4 mph 1.2 mph 84.3% 0 in 181 W/m2
07:44 71.4 °F 66.7 °F 29.8 in South 0.8 mph 2.3 mph 85% 0 in 197 W/m2
07:49 71.8 °F 66.7 °F 29.8 in SSW 0.7 mph 2 mph 84.4% 0 in 209 W/m2
07:54 72.3 °F 66.9 °F 29.8 in SSW 1.4 mph 3.5 mph 83% 0 in 220 W/m2
07:59 72.7 °F 66.9 °F 29.8 in SSW 2.2 mph 4 mph 81.9% 0 in 239 W/m2
08:04 72.9 °F 67.1 °F 29.8 in SSW 2 mph 4 mph 82% 0 in 250 W/m2
08:09 73 °F 66.9 °F 29.8 in SW 1.9 mph 3.5 mph 80.9% 0 in 258 W/m2
08:14 73.4 °F 66.7 °F 29.8 in SW 1.4 mph 3.5 mph 79.9% 0 in 258 W/m2
08:19 73.6 °F 66.9 °F 29.8 in South 1.2 mph 3.5 mph 79.5% 0 in 276 W/m2
08:24 73.8 °F 66.7 °F 29.8 in South 1.7 mph 3.5 mph 78.8% 0 in 283 W/m2
08:29 74.3 °F 67.3 °F 29.8 in SE 1.7 mph 5 mph 78.5% 0 in 283 W/m2
08:34 74.3 °F 66.9 °F 29.8 in SE 1.4 mph 5 mph 77.8% 0 in 295 W/m2
08:39 74.3 °F 67.1 °F 29.8 in ESE 1.7 mph 5 mph 78.2% 0 in 287 W/m2
08:44 74.5 °F 67.3 °F 29.8 in ESE 3 mph 6 mph 78.2% 0 in 301 W/m2
08:49 74.5 °F 66.9 °F 29.8 in East 3 mph 7 mph 77.5% 0 in 308 W/m2
08:54 74.5 °F 67.1 °F 29.8 in East 2.7 mph 7 mph 77.8% 0 in 236 W/m2
08:59 74.5 °F 66.9 °F 29.8 in ESE 1.7 mph 7 mph 77.3% 0 in 343 W/m2
09:04 74.7 °F 66.7 °F 29.8 in South 1.5 mph 4 mph 76.6% 0 in 373 W/m2
09:09 75 °F 67.1 °F 29.8 in ESE 2.7 mph 5 mph 76.2% 0 in 404 W/m2
09:14 75.4 °F 67.3 °F 29.8 in ESE 3.4 mph 6.9 mph 76.1% 0 in 427 W/m2
09:19 75.7 °F 67.5 °F 29.8 in SE 2.8 mph 7 mph 75.8% 0 in 432 W/m2
09:24 75.9 °F 67.6 °F 29.8 in SE 1.9 mph 5 mph 75.5% 0 in 424 W/m2
09:29 76.1 °F 67.8 °F 29.8 in East 2.4 mph 6 mph 75.4% 0 in 417 W/m2
09:34 76.1 °F 67.8 °F 29.8 in ESE 2.7 mph 6 mph 75.3% 0 in 455 W/m2
09:39 76.3 °F 68 °F 29.8 in ESE 1.3 mph 5 mph 75.7% 0 in 468 W/m2
09:44 76.6 °F 68.2 °F 29.8 in ESE 1.9 mph 4 mph 74.9% 0 in 492 W/m2
09:49 76.5 °F 68 °F 29.8 in SSE 2 mph 4 mph 75.2% 0 in 506 W/m2
09:54 77.4 °F 68.7 °F 29.8 in ENE 3.4 mph 7 mph 74.6% 0 in 522 W/m2
09:59 77.9 °F 68.2 °F 29.8 in ENE 4.9 mph 8.1 mph 72.2% 0 in 540 W/m2
10:04 77.4 °F 67.8 °F 29.8 in ENE 2.2 mph 8 mph 72.3% 0 in 540 W/m2
10:09 77.5 °F 68 °F 29.8 in East 3.9 mph 9.2 mph 72.7% 0 in 534 W/m2
10:14 77.7 °F 68.2 °F 29.8 in East 4.4 mph 9.2 mph 72.5% 0 in 531 W/m2
10:19 77.7 °F 68 °F 29.8 in East 4.1 mph 9 mph 72.2% 0 in 548 W/m2
10:24 77.4 °F 67.8 °F 29.8 in ENE 3.2 mph 8 mph 72.3% 0 in 568 W/m2
10:29 77.5 °F 68.2 °F 29.8 in ENE 3.4 mph 7 mph 73% 0 in 603 W/m2
10:34 78.1 °F 68.5 °F 29.8 in NE 2.1 mph 7 mph 72.5% 0 in 622 W/m2
10:39 78.6 °F 68.7 °F 29.8 in NE 2.1 mph 5 mph 71.5% 0 in 642 W/m2
10:44 79 °F 68.7 °F 29.8 in ESE 1.9 mph 5 mph 71% 0 in 636 W/m2
10:49 79.2 °F 68.9 °F 29.8 in ESE 3.8 mph 9.2 mph 70.9% 0 in 636 W/m2
10:54 79 °F 68.7 °F 29.8 in ESE 2.4 mph 9.2 mph 70.6% 0 in 624 W/m2
10:59 79 °F 68.9 °F 29.8 in ENE 2.9 mph 7 mph 71% 0 in 698 W/m2
11:04 79 °F 68.7 °F 29.8 in NE 4 mph 7 mph 71% 0 in 698 W/m2
11:09 79 °F 68.9 °F 29.8 in NNE 3.5 mph 7 mph 71.3% 0 in 717 W/m2
11:14 79.2 °F 68.4 °F 29.8 in ESE 3.9 mph 7 mph 69.8% 0 in 717 W/m2
11:19 79.2 °F 68.4 °F 29.8 in ESE 5.2 mph 8 mph 69.8% 0 in 650 W/m2
11:24 79.2 °F 68.7 °F 29.8 in East 3.4 mph 8 mph 70.3% 0 in 701 W/m2
11:29 79.5 °F 68.7 °F 29.8 in ESE 1.2 mph 7 mph 69.7% 0 in 710 W/m2
11:34 79.7 °F 68.7 °F 29.8 in ESE 3.9 mph 7 mph 69.3% 0 in 770 W/m2
11:39 79.7 °F 68.7 °F 29.8 in ESE 2.1 mph 7 mph 69.4% 0 in 779 W/m2
11:44 80.1 °F 69.3 °F 29.8 in East 3.4 mph 8.1 mph 69.8% 0 in 761 W/m2
11:49 80.4 °F 69.3 °F 29.7 in ENE 2.9 mph 8 mph 68.8% 0 in 782 W/m2
11:54 81.1 °F 69.8 °F 29.7 in East 3.4 mph 9.2 mph 68.6% 0 in 819 W/m2
11:59 81 °F 69.1 °F 29.7 in East 4.9 mph 9.2 mph 67.3% 0 in 846 W/m2
12:04 80.6 °F 68.5 °F 29.7 in ESE 4.3 mph 9.2 mph 67% 0 in 817 W/m2
12:09 80.8 °F 69.4 °F 29.7 in East 3.6 mph 8 mph 68.5% 0 in 724 W/m2
12:14 80.4 °F 68.9 °F 29.7 in ESE 3.5 mph 8.1 mph 68.1% 0 in 526 W/m2
12:19 79.9 °F 68.9 °F 29.7 in ESE 4.4 mph 8 mph 69.4% 0 in 547 W/m2
12:24 80.2 °F 69.3 °F 29.7 in East 3.7 mph 7 mph 69.5% 0 in 547 W/m2
12:29 80.4 °F 69.8 °F 29.7 in NNE 2.2 mph 7 mph 69.9% 0 in 534 W/m2
12:34 81.1 °F 69.8 °F 29.7 in ENE 4 mph 8.1 mph 68.6% 0 in 795 W/m2
12:39 81.3 °F 69.8 °F 29.7 in ENE 3.9 mph 8.1 mph 68.3% 0 in 842 W/m2
12:44 81.7 °F 70.3 °F 29.7 in ENE 3.4 mph 8 mph 68.7% 0 in 824 W/m2
12:49 81.9 °F 70 °F 29.7 in East 4.5 mph 8.1 mph 67.4% 0 in 844 W/m2
12:54 82.6 °F 70.3 °F 29.7 in ESE 3.5 mph 10.4 mph 66.6% 0 in 851 W/m2
12:59 82.4 °F 70.3 °F 29.7 in East 2.9 mph 10 mph 67% 0 in 840 W/m2
13:04 82.8 °F 70.7 °F 29.7 in NE 3.8 mph 7 mph 66.8% 0 in 879 W/m2
13:09 82.6 °F 70.3 °F 29.7 in East 4.7 mph 10.4 mph 66.8% 0 in 860 W/m2
13:14 82.2 °F 70 °F 29.7 in ESE 5.3 mph 10 mph 66.8% 0 in 895 W/m2
13:19 82 °F 70 °F 29.7 in SE 4 mph 9 mph 66.9% 0 in 884 W/m2
13:24 81.5 °F 69.6 °F 29.7 in SSE 3.2 mph 6 mph 67.3% 0 in 336 W/m2
13:29 81.9 °F 70.5 °F 29.7 in ENE 1.7 mph 6 mph 68.5% 0 in 861 W/m2
13:34 83.1 °F 71.1 °F 29.7 in ESE 2.9 mph 7 mph 67.1% 0 in 879 W/m2
13:39 82.4 °F 70 °F 29.7 in East 3.4 mph 7 mph 65.9% 0 in 742 W/m2
13:44 82 °F 70 °F 29.7 in ESE 3.5 mph 7 mph 67% 0 in 835 W/m2
13:49 82.2 °F 70 °F 29.7 in SE 3.9 mph 7 mph 66.6% 0 in 842 W/m2
13:54 82.4 °F 70.3 °F 29.7 in SE 3.3 mph 7 mph 66.9% 0 in 888 W/m2
13:59 82.4 °F 70 °F 29.7 in East 3.9 mph 7 mph 66.2% 0 in 888 W/m2
14:04 82.8 °F 70.7 °F 29.7 in East 3.9 mph 8.1 mph 67% 0 in 789 W/m2
14:09 82.6 °F 70.3 °F 29.7 in ENE 2.2 mph 8.1 mph 66.6% 0 in 285 W/m2
14:14 83.1 °F 70.7 °F 29.7 in ENE 2.5 mph 7 mph 66.1% 0 in 874 W/m2
14:19 84 °F 71.1 °F 29.7 in ENE 2.8 mph 7 mph 65.1% 0 in 782 W/m2
14:24 83.7 °F 70.3 °F 29.7 in ESE 2.9 mph 5 mph 64.3% 0 in 283 W/m2
14:29 83.1 °F 70 °F 29.7 in ESE 2.5 mph 6 mph 64.7% 0 in 392 W/m2
14:34 83.3 °F 70.7 °F 29.7 in East 5.3 mph 10.4 mph 65.7% 0 in 854 W/m2
14:39 83.5 °F 70.5 °F 29.7 in East 4.2 mph 10 mph 64.8% 0 in 854 W/m2
14:44 83.7 °F 70.2 °F 29.7 in East 3.9 mph 7 mph 63.9% 0 in 817 W/m2
14:49 84.2 °F 70.7 °F 29.7 in ENE 3.2 mph 8 mph 64% 0 in 874 W/m2
14:54 84.6 °F 70.3 °F 29.7 in East 4.7 mph 8.1 mph 62.5% 0 in 874 W/m2
14:59 84.6 °F 69.4 °F 29.7 in East 4.9 mph 9.2 mph 60.8% 0 in 803 W/m2
15:04 83.8 °F 68.2 °F 29.7 in ENE 4.6 mph 9 mph 59.6% 0 in 679 W/m2
15:09 84.4 °F 68.4 °F 29.7 in East 3.1 mph 8 mph 58.8% 0 in 791 W/m2
15:14 84.9 °F 68 °F 29.7 in ENE 3.8 mph 9.2 mph 57% 0 in 784 W/m2
15:19 85.5 °F 67.1 °F 29.7 in East 4.4 mph 9.2 mph 54.6% 0 in 768 W/m2
15:24 85.5 °F 67.1 °F 29.7 in ESE 3.4 mph 8 mph 54.4% 0 in 745 W/m2
15:29 85.5 °F 66.4 °F 29.7 in ESE 4.8 mph 8.1 mph 52.8% 0 in 747 W/m2
15:34 85.6 °F 67.3 °F 29.7 in ESE 2.5 mph 8 mph 54.4% 0 in 733 W/m2
15:39 86.5 °F 66.9 °F 29.7 in SSE 3 mph 6 mph 52.4% 0 in 726 W/m2
15:44 86.5 °F 65.7 °F 29.7 in South 4.5 mph 8.1 mph 49.9% 0 in 717 W/m2
15:49 86.5 °F 65.1 °F 29.7 in South 2.9 mph 8 mph 49.3% 0 in 714 W/m2
15:54 86.5 °F 64.9 °F 29.7 in SSE 2.3 mph 6 mph 48.6% 0 in 708 W/m2
15:59 86.4 °F 64 °F 29.7 in ESE 3.4 mph 6 mph 47.7% 0 in 707 W/m2
16:04 87.1 °F 64.9 °F 29.7 in SE 2.2 mph 8 mph 48% 0 in 708 W/m2
16:09 87.1 °F 63 °F 29.7 in SSE 3 mph 8.1 mph 44.7% 0 in 687 W/m2
16:14 87.3 °F 62.6 °F 29.7 in South 2.6 mph 8.1 mph 44% 0 in 698 W/m2
16:19 87.3 °F 62.6 °F 29.7 in SSW 4.1 mph 8.1 mph 43.8% 0 in 700 W/m2
16:24 87.3 °F 61.9 °F 29.7 in South 3.7 mph 7 mph 42.7% 0 in 686 W/m2
16:29 87.4 °F 61.3 °F 29.7 in SSW 3.3 mph 6 mph 41.6% 0 in 686 W/m2
16:34 87.6 °F 60.8 °F 29.7 in SSW 3.7 mph 6 mph 40.5% 0 in 670 W/m2
16:39 87.3 °F 60.6 °F 29.7 in ESE 4.3 mph 8.1 mph 40.9% 0 in 668 W/m2
16:44 87.3 °F 60.1 °F 29.7 in SSE 4.8 mph 8.1 mph 39.9% 0 in 656 W/m2
16:49 86.7 °F 59.7 °F 29.7 in South 1.9 mph 7 mph 40.4% 0 in 504 W/m2
16:54 86.2 °F 60.1 °F 29.7 in South 1.8 mph 5 mph 41.7% 0 in 165 W/m2
16:59 85.5 °F 59.5 °F 29.7 in West 1.9 mph 4 mph 41.6% 0 in 383 W/m2
17:04 86.2 °F 61 °F 29.7 in WSW 2.9 mph 5 mph 43% 0 in 392 W/m2
17:09 86 °F 60.4 °F 29.7 in SW 1.8 mph 5 mph 42.2% 0 in 380 W/m2
17:14 86 °F 61 °F 29.7 in ESE 2.5 mph 5 mph 43.2% 0 in 257 W/m2
17:19 85.5 °F 60.4 °F 29.7 in ESE 3.1 mph 5 mph 43.2% 0 in 197 W/m2
17:24 85.1 °F 60.3 °F 29.7 in ESE 2.5 mph 5 mph 43.3% 0 in 211 W/m2
17:29 85.1 °F 61.2 °F 29.7 in ESE 2 mph 3.5 mph 44.7% 0 in 315 W/m2
17:34 85.5 °F 61.7 °F 29.7 in SSE 0.9 mph 3.5 mph 45% 0 in 541 W/m2
17:39 86.4 °F 61.2 °F 29.7 in SE 1.5 mph 4 mph 42.7% 0 in 534 W/m2
17:44 86.7 °F 60.6 °F 29.7 in SE 2.1 mph 4 mph 41.5% 0 in 466 W/m2
17:49 86.9 °F 60.4 °F 29.7 in SSE 1.7 mph 3.5 mph 41.2% 0 in 413 W/m2
17:54 87.3 °F 59.7 °F 29.7 in SW 2 mph 5 mph 39.7% 0 in 431 W/m2
17:59 87.1 °F 59.9 °F 29.6 in SSW 2.5 mph 5 mph 40.2% 0 in 401 W/m2
18:04 87.1 °F 60.8 °F 29.6 in SE 2.1 mph 5 mph 41.5% 0 in 376 W/m2
18:09 86.7 °F 60.8 °F 29.6 in South 1.7 mph 5 mph 41.7% 0 in 343 W/m2
18:14 86.7 °F 61.3 °F 29.6 in SSE 1.7 mph 5 mph 42.7% 0 in 327 W/m2
18:19 86.7 °F 61.7 °F 29.6 in SSE 2.4 mph 5 mph 43.2% 0 in 313 W/m2
18:24 86.7 °F 62.2 °F 29.6 in SSE 2.4 mph 5 mph 44.2% 0 in 304 W/m2
18:29 86.7 °F 62.8 °F 29.6 in SE 2.7 mph 5 mph 45.1% 0 in 278 W/m2
18:34 86.4 °F 63.1 °F 29.6 in SE 2.9 mph 5 mph 46.1% 0 in 294 W/m2
18:39 86.2 °F 63.9 °F 29.6 in SE 2.1 mph 5 mph 47.5% 0 in 279 W/m2
18:44 86 °F 64.4 °F 29.6 in ESE 2 mph 5 mph 48.7% 0 in 265 W/m2
18:49 86 °F 64.8 °F 29.6 in SE 1.9 mph 5 mph 49.3% 0 in 265 W/m2
18:54 85.8 °F 65.3 °F 29.6 in ESE 2.2 mph 5 mph 50.4% 0 in 223 W/m2
18:59 85.3 °F 66 °F 29.6 in SSE 3.7 mph 10.4 mph 52.6% 0 in 207 W/m2
19:04 84.9 °F 61.5 °F 29.6 in South 6.3 mph 13 mph 45.5% 0 in 86 W/m2
19:09 84.9 °F 61.3 °F 29.6 in SSW 7.1 mph 13 mph 45.1% 0 in 58 W/m2
19:14 84.6 °F 59.7 °F 29.6 in SSW 6 mph 13 mph 43.3% 0 in 62 W/m2
19:19 84.2 °F 58.3 °F 29.6 in SSW 6.2 mph 11 mph 41.4% 0 in 88 W/m2
19:24 84 °F 57.7 °F 29.6 in SSW 6.5 mph 12 mph 40.8% 0 in 90 W/m2
19:29 83.7 °F 57.4 °F 29.6 in South 5.2 mph 9 mph 41% 0 in 86 W/m2
19:34 83.5 °F 57.2 °F 29.6 in SSW 5.4 mph 8.1 mph 40.8% 0 in 86 W/m2
19:39 83.1 °F 57 °F 29.6 in SSW 3.5 mph 8 mph 41.1% 0 in 63 W/m2
19:44 82.8 °F 57.2 °F 29.6 in SSW 2.5 mph 7 mph 41.7% 0 in 56 W/m2
19:49 82.6 °F 57.2 °F 29.6 in SSE 1.4 mph 5 mph 42% 0 in 49 W/m2
19:54 82.4 °F 57.7 °F 29.6 in SE 1.2 mph 3.5 mph 43.3% 0 in 44 W/m2
19:59 81.7 °F 58.1 °F 29.6 in ESE 2.2 mph 3.5 mph 44.6% 0 in 39 W/m2
20:04 81 °F 58.6 °F 29.6 in ESE 1.9 mph 3.5 mph 46.6% 0 in 40 W/m2
20:09 80.6 °F 58.1 °F 29.6 in ESE 1.4 mph 3.5 mph 46.4% 0 in 40 W/m2
20:14 81 °F 57.7 °F 29.6 in SE 0.8 mph 3 mph 45.1% 0 in 42 W/m2
20:19 81.1 °F 57.2 °F 29.6 in South 0.7 mph 3.5 mph 43.9% 0 in 39 W/m2
20:24 81.3 °F 57.2 °F 29.6 in South 0.5 mph 3 mph 43.9% 0 in 28 W/m2
20:29 81 °F 57.6 °F 29.6 in SSE 1 mph 3 mph 44.9% 0 in 23 W/m2
20:34 79.7 °F 58.1 °F 29.6 in ESE 2.2 mph 3.5 mph 47.7% 0 in 19 W/m2
20:39 78.8 °F 58.1 °F 29.6 in ESE 1.4 mph 3.5 mph 49.3% 0 in 12 W/m2
20:44 78.4 °F 58.6 °F 29.6 in ESE 0.8 mph 3 mph 50.6% 0 in 7 W/m2
20:49 78.1 °F 58.6 °F 29.6 in ESE 0.6 mph 2.3 mph 51.1% 0 in 0 W/m2
20:54 77.9 °F 58.3 °F 29.6 in ESE 0.7 mph 2.3 mph 50.8% 0 in 0 W/m2
20:59 77.7 °F 58.6 °F 29.6 in ESE 1.3 mph 3 mph 51.7% 0 in 0 W/m2
21:04 76.8 °F 57.7 °F 29.6 in ESE 3.4 mph 5 mph 52% 0 in 0 W/m2
21:09 76.3 °F 57.6 °F 29.6 in East 2.2 mph 5 mph 52.4% 0 in 0 W/m2
21:14 75.9 °F 57.9 °F 29.6 in East 1.7 mph 3.5 mph 53.7% 0 in 0 W/m2
21:19 75.7 °F 58.3 °F 29.6 in East 1.4 mph 3 mph 54.8% 0 in 0 W/m2
21:24 75.6 °F 58.1 °F 29.6 in East 1.4 mph 3.5 mph 54.5% 0 in 0 W/m2
21:29 75.6 °F 57.2 °F 29.6 in East 1.6 mph 4 mph 52.8% 0 in 0 W/m2
21:34 75.6 °F 56.7 °F 29.6 in East 3 mph 5 mph 52.1% 0 in 0 W/m2
21:39 75 °F 56.7 °F 29.7 in East 4.2 mph 8.1 mph 52.8% 0 in 0 W/m2
21:44 74.8 °F 56.7 °F 29.7 in ENE 3.4 mph 8 mph 53.5% 0 in 0 W/m2
21:49 74.7 °F 58.3 °F 29.7 in NE 3.2 mph 11 mph 56.9% 0 in 0 W/m2
21:54 75 °F 62.8 °F 29.7 in ENE 5.3 mph 12 mph 65.6% 0 in 0 W/m2
21:59 75.2 °F 64.6 °F 29.7 in ENE 5.3 mph 12 mph 69.7% 0 in 0 W/m2
22:04 75.2 °F 65.1 °F 29.7 in ENE 6.6 mph 10.4 mph 70.9% 0 in 0 W/m2
22:09 75.2 °F 65.1 °F 29.7 in ENE 5.2 mph 10 mph 71% 0 in 0 W/m2
22:14 75 °F 65.3 °F 29.7 in ENE 5.1 mph 9.2 mph 71.8% 0 in 0 W/m2
22:19 74.8 °F 65.3 °F 29.7 in ENE 4 mph 9 mph 72% 0 in 0 W/m2
22:24 74.7 °F 64.9 °F 29.7 in ENE 4.7 mph 8.1 mph 72% 0 in 0 W/m2
22:29 74.3 °F 64.8 °F 29.7 in East 3.5 mph 8 mph 72% 0 in 0 W/m2
22:34 74.1 °F 64.6 °F 29.7 in East 3.3 mph 7 mph 71.9% 0 in 0 W/m2
22:39 73.9 °F 64.4 °F 29.7 in East 4 mph 7 mph 72% 0 in 0 W/m2
22:44 73.8 °F 64.2 °F 29.7 in ESE 3.3 mph 7 mph 71.8% 0 in 0 W/m2
22:49 73.8 °F 63.9 °F 29.7 in East 4.7 mph 8.1 mph 71.4% 0 in 0 W/m2
22:54 73.4 °F 63.9 °F 29.7 in East 4.8 mph 8.1 mph 71.8% 0 in 0 W/m2
22:59 73.2 °F 63.3 °F 29.7 in East 4.9 mph 9.2 mph 71.2% 0 in 0 W/m2
23:04 73 °F 63 °F 29.7 in East 5.5 mph 10.4 mph 70.7% 0 in 0 W/m2
23:09 73.2 °F 62.6 °F 29.7 in East 4.9 mph 10 mph 69.6% 0 in 0 W/m2
23:14 73 °F 62.2 °F 29.7 in East 3.7 mph 8 mph 69% 0 in 0 W/m2
23:19 72.9 °F 62.2 °F 29.7 in East 4.1 mph 9 mph 69.2% 0 in 0 W/m2
23:24 72.9 °F 62.1 °F 29.7 in East 5.9 mph 9.2 mph 69% 0 in 0 W/m2
23:29 72.7 °F 62.2 °F 29.7 in ENE 4.5 mph 9 mph 69.8% 0 in 0 W/m2
23:34 72.7 °F 62.1 °F 29.7 in East 4.7 mph 10.4 mph 69.4% 0 in 0 W/m2
23:39 72.7 °F 61.9 °F 29.7 in East 2.9 mph 5 mph 69% 0 in 0 W/m2
23:44 72.5 °F 62.1 °F 29.7 in East 3.7 mph 8.1 mph 69.6% 0 in 0 W/m2
23:49 72.3 °F 62.1 °F 29.7 in East 4.8 mph 8 mph 70% 0 in 0 W/m2
23:54 72.1 °F 61.9 °F 29.7 in East 4.5 mph 7 mph 70% 0 in 0 W/m2
23:59 72.1 °F 61.9 °F 29.7 in East 3.2 mph 8.1 mph 70.2% 0 in 0 W/m2
Stazione Meteorologica MeteoMincio Rivalta s/M (MN)
Con i complimenti di Weather Underground - 4 mb


METEO PILLOLE
Maggior quantità di pioggia caduta in un ora
Holt (263.11 m), Missouri - USA
il 22 giugno 1947 caddero 305mm.

Do NOT follow this link or you will be banned from the site!